x

Buoy I01 - Eastern Maine Shelf (44034) Wave Buoy

3:04am - Sat 22nd Jul 2017 All times are EDT. -4 hours from GMT.

  • Sig Wave height 2.0ft
  • Peak Period 8s
  • Wind
    4mph, 4mph gusts
  • Sea Temp 51°f
  • 空気 Temp 62°f
  • Sea Pressure 1007.3mb
  • Buoy I01 - Eastern Maine Shelf
  • Buoy I01 - Eastern Maine Shelf

More Historic Weather Station data

Upgrade to MSW Pro to gain access to the past 30 days of data for over 8000 Wavebouys and Weather Stations around the globe.

Join Pro

Comparision Forecast

View Surf forecast
   
Sat 07/22 3:04am 2ft 8s 4 4 mph 1007.3mb 51f 62f
2:04am 1.6ft 8s 9 9 mph 1007mb 52f 60f
1:04am 1.6ft 8s 9 9 mph 1006.4mb 52f 59f
12:04am 1.6ft 6s 9 9 mph 1006.2mb 52f 58f
Fri 07/21 11:04pm 2ft 6s 9 11 mph 1005.8mb 53f 56f
10:04pm 1.6ft 6s 9 9 mph 1006mb 52f 57f
9:04pm 1.6ft 6s 9 11 mph 1006.1mb 52f 57f
8:04pm 1.6ft 6s 11 11 mph 1005.7mb 52f 58f
7:04pm 1.6ft 6s 11 13 mph 1005.7mb 53f 57f
6:04pm 1.3ft 6s 11 13 mph 1005.8mb 53f 59f
5:04pm 1.3ft 5s 11 13 mph 1005.8mb 51f 59f
4:04pm 1.3ft 6s 9 9 mph 1006.5mb 53f 59f
3:04pm 1.6ft 8s 11 13 mph 1006.9mb 53f 58f
2:04pm 1ft 5s 9 11 mph 1007mb 53f 59f
1:04pm 1.3ft 5s 9 9 mph 1007.6mb 53f 59f
12:04pm 1.3ft 6s 7 9 mph 1008.1mb 53f 58f
11:04am 0.7ft  -  7 7 mph 1008.3mb 52f 58f
10:04am 1.6ft 11s 4 4 mph 1008.3mb 52f 58f
9:04am 1.6ft 6s 4 7 mph 1008.1mb 53f 57f
8:04am 1.6ft 6s 7 7 mph 1008.3mb 53f 56f
7:04am 1.3ft 6s 2 4 mph 1008.1mb 53f 55f
6:04am 1.3ft 6s 4 4 mph 1008mb 51f 54f
5:04am 1.3ft 5s 4 4 mph 1008mb 51f 55f
4:04am 1.3ft 5s 2 2 mph 1007.9mb 50f 56f
3:04am 1.3ft 6s 4 4 mph 1007.8mb 53f 55f
2:04am 1.6ft 8s 4 4 mph 1007.8mb 53f 56f
1:04am 1.6ft 6s 4 7 mph 1008mb 52f 57f
12:04am 1.3ft 5s 2 2 mph 1008.4mb 52f 60f
Thu 07/20 11:04pm 1.6ft 6s 4 7 mph 1008.3mb 53f 56f
10:04pm 1.6ft 6s 2 2 mph 1008.4mb 52f 58f
9:04pm 1.6ft 5s 7 7 mph 1008.9mb 52f 58f
8:04pm 1.6ft 5s 9 11 mph 1008.7mb 53f 57f
7:04pm 1.3ft 5s 7 7 mph 1008.6mb 52f 58f
6:04pm 1.6ft 4s 9 11 mph 1009.2mb 52f 59f
5:04pm 1.6ft 6s 7 7 mph 1009.6mb 54f 59f
4:04pm 1.6ft 5s 4 7 mph 1010.2mb 53f 62f
3:04pm 1.6ft 5s 4 7 mph 1010.5mb 52f 60f
2:04pm 2ft 5s 4 7 mph 1010.8mb 52f 58f
1:04pm 1.6ft 5s 7 7 mph 1011.7mb 52f 58f
12:04pm 1.6ft 5s 7 7 mph 1012.1mb 51f 57f
11:04am 1.6ft 6s 4 4 mph 1012.2mb 50f 57f
10:04am 2ft 11s 7 7 mph 1012.1mb 52f 56f
9:04am 1.6ft 6s 4 4 mph 1012.1mb 51f 58f
8:04am 1.3ft 6s 2 4 mph 1012.6mb 52f 58f
7:04am 1.6ft 8s 4 7 mph 1012.2mb 54f 57f
6:04am 1.6ft 6s 7 7 mph 1011.9mb 52f 55f
5:04am 1.6ft 6s 2 4 mph 1011.4mb 52f 55f
4:04am 1.6ft 8s 4 4 mph 1011.5mb 52f 56f
3:04am 2ft 5s 4 7 mph 1011.8mb 53f 56f
2:04am 1.6ft 8s 4 7 mph 1012.1mb 52f 57f
1:04am 1.6ft 5s 4 4 mph 1012.5mb 52f 57f
12:04am 1.6ft 6s 7 7 mph 1012.9mb 54f 58f
Wed 07/19 11:04pm 1.6ft 6s 7 7 mph 1013mb 53f 56f
10:04pm 2ft 8s 4 7 mph 1012.8mb 53f 56f
9:04pm 2ft 6s 4 4 mph 1012.8mb 51f 56f
8:04pm 1.6ft 6s 4 4 mph 1012.5mb 51f 56f
7:04pm 1.6ft 8s 4 4 mph 1012.4mb 52f 56f
6:04pm 1.6ft 8s 7 7 mph 1012.6mb 52f 57f
5:04pm 1.6ft 8s 7 7 mph 1013mb 53f 58f
4:04pm 1.6ft 8s 4 7 mph 1013.4mb 52f 59f
3:04pm 2ft 8s 4 7 mph 1013.9mb 53f 62f
1:04pm 1.6ft 6s 2 2 mph 1015.1mb 52f 63f
12:04pm 1.6ft 8s 2 2 mph 1015.4mb 51f 61f
11:04am 1.6ft 5s 2 2 mph 1015.7mb 49f 60f
10:04am 1.6ft 6s 2 2 mph 1015.9mb 50f 58f
9:04am 2ft 6s 2 4 mph 1015.9mb 51f 57f
8:04am 2ft 11s  -  2 mph 1016.1mb 49f 56f
7:04am 2ft 6s 2 4 mph 1016.1mb 51f 57f
6:04am 1.6ft 6s 4 4 mph 1016.2mb 51f 57f
5:04am 1.6ft 8s 4 4 mph 1016.4mb 51f 56f
4:04am 1.6ft 8s 2 2 mph 1016.4mb 51f 57f
3:04am 2ft 8s 4 4 mph 1016.7mb 50f 57f
2:04am 1.6ft 8s 2 2 mph 1016.8mb 51f 58f
1:04am 2ft 8s 4 4 mph 1017.3mb 51f 56f
12:04am  -   -  4 7 mph 1017.9mb 50f 56f
Tue 07/18 11:04pm 1.6ft 8s 7 7 mph 1017.8mb 52f 55f
10:04pm 2ft 8s 4 7 mph 1018.1mb 52f 55f
9:04pm 2ft 8s 4 7 mph 1018.1mb 53f 56f
8:04pm 2ft 8s 2 4 mph 1017.8mb 53f 59f
7:04pm 2.5ft 11s 7 7 mph 1017.5mb 54f 57f
6:04pm 2ft 6s 7 9 mph 1017.6mb 52f 58f
5:04pm 1.6ft 8s 4 4 mph 1017.8mb 53f 57f
4:04pm 2ft 8s 4 4 mph 1018.3mb 54f 57f
3:04pm  -   -  7 7 mph 1018.6mb 53f 56f
2:04pm 2.5ft 8s 4 7 mph 1019.2mb 51f 57f
1:04pm 2ft 8s 4 4 mph 1019.9mb 52f 56f
12:04pm 2ft 6s 7 7 mph 1020.3mb 51f 56f
11:04am 2.5ft 8s 4 4 mph 1020.7mb 51f 55f
10:04am 2ft 8s 4 7 mph 1021.1mb 51f 56f